Flight Track Log - Related Links

Times and Time Zones

All times are in EDT time to prevent confusion due to time zone crossing. See the N1944E flight status page for this flight to view local times or setup timezone preferences in your user account.

Time Position Orientation Groundspeed Altitude Reporting Facility
EDT Latitude Longitude Course Direction KTS MPH feet Rate Location/Type
Mon 03:09:48 AM 43.5497 -111.9478 68° East 110 127 9,300  Level Salt Lake Center
Mon 03:10:49 AM 43.5639 -111.9114 62° Northeast 112 129 10,600 1,190 Climbing Salt Lake Center
Mon 03:11:49 AM 43.5761 -111.8736 66° East 113 130 11,700 1,250 Climbing Salt Lake Center
Mon 03:12:49 AM 43.5939 -111.8286 61° Northeast 116 133 13,100 1,289 Climbing Salt Lake Center
Mon 03:13:50 AM 43.6056 -111.7864 69° East 120 138 14,300 1,091 Climbing Salt Lake Center
Mon 03:14:00 AM 43.6284 -111.7404 73° East  Level Estimated
Mon 03:14:50 AM 43.6222 -111.7458 60° Northeast 124 143 15,300  Level Salt Lake Center
Mon 03:15:50 AM 43.6397 -111.6936 65° Northeast 130 150 16,700 1,140 Climbing Salt Lake Center
Mon 03:16:51 AM 43.6489 -111.6433 76° East 136 157 17,600 942 Climbing Salt Lake Center
Mon 03:17:51 AM 43.6653 -111.5953 65° Northeast 142 163 18,600 700 Climbing Salt Lake Center
Mon 03:18:51 AM 43.6889 -111.5483 55° Northeast 148 170 19,000 248 Climbing Salt Lake Center
Mon 03:19:52 AM 43.7144 -111.4706 66° East 179 206 19,100 50 Climbing Salt Lake Center
Mon 03:20:52 AM 43.7319 -111.3933 73° East 206 237 19,100  Level Salt Lake Center
Mon 03:21:52 AM 43.7517 -111.3206 69° East 211 243 19,100  Level Salt Lake Center
Mon 03:22:53 AM 43.7750 -111.2372 69° East 210 242 19,100  Level Salt Lake Center
Mon 03:23:53 AM 43.7986 -111.1669 65° Northeast 211 243 19,100  Level Salt Lake Center
Mon 03:24:53 AM 43.8250 -111.1011 61° Northeast 207 238 19,100  Level Salt Lake Center
Mon 03:25:54 AM 43.8544 -111.0222 63° Northeast 206 237 19,100  Level Salt Lake Center
Mon 03:26:54 AM 43.8792 -110.9561 63° Northeast 204 235 19,100  Level Salt Lake Center
Mon 03:27:54 AM 43.9061 -110.8875 61° Northeast 209 241 19,100  Level Salt Lake Center
Mon 03:28:55 AM 43.9264 -110.8064 71° East 210 242 19,100  Level Salt Lake Center
Mon 03:29:55 AM 43.9483 -110.7322 68° East 208 239 19,100  Level Salt Lake Center
Mon 03:30:55 AM 43.9697 -110.6567 69° East 209 241 19,100  Level Salt Lake Center
Mon 03:31:55 AM 43.9906 -110.5814 69° East 208 239 19,100  Level Salt Lake Center
Mon 03:32:56 AM 44.0142 -110.5078 66° East 208 239 19,100  Level Salt Lake Center
Mon 03:33:56 AM 44.0378 -110.4344 66° East 209 241 19,100  Level Salt Lake Center
Mon 03:34:56 AM 44.0603 -110.3606 67° East 208 239 19,100  Level Salt Lake Center
Mon 03:35:56 AM 44.0828 -110.2867 67° East 208 239 19,100  Level Salt Lake Center
Mon 03:36:57 AM 44.1067 -110.2114 66° East 211 243 19,100  Level Salt Lake Center
Mon 03:37:57 AM 44.1303 -110.1367 66° East 212 244 19,100  Level Salt Lake Center
Mon 03:38:57 AM 44.1503 -110.0692 68° East 209 241 19,100  Level Salt Lake Center
Mon 03:39:57 AM 44.1764 -109.9858 66° East 210 242 19,100  Level Salt Lake Center
Mon 03:40:58 AM 44.1981 -109.9131 67° East 212 244 19,100  Level Salt Lake Center
Mon 03:41:58 AM 44.2200 -109.8422 67° East 210 242 19,100  Level Salt Lake Center
Mon 03:42:58 AM 44.2458 -109.7572 67° East 212 244 19,100  Level Salt Lake Center
Mon 03:43:58 AM 44.2675 -109.6839 68° East 213 245 19,100  Level Salt Lake Center
Mon 03:44:59 AM 44.2897 -109.6108 67° East 214 246 19,100  Level Salt Lake Center
Mon 03:45:59 AM 44.3114 -109.5369 68° East 215 247 19,100  Level Salt Lake Center
Mon 03:46:59 AM 44.3333 -109.4622 68° East 215 247 19,100  Level Salt Lake Center
Mon 03:47:59 AM 44.3564 -109.3869 67° East 213 245 19,100 -198 Level Salt Lake Center
Mon 03:49:00 AM 44.3806 -109.3086 67° East 217 250 18,700 -496 Descending Salt Lake Center
Mon 03:50:00 AM 44.4042 -109.2269 68° East 225 259 18,100 -450 Descending Salt Lake Center
Mon 03:51:00 AM 44.4292 -109.1469 66° East 225 259 17,800 -450 Descending Salt Lake Center
Mon 03:52:00 AM 44.4511 -109.0686 69° East 219 252 17,200 -694 Descending Salt Lake Center
Mon 03:53:01 AM 44.4744 -108.9903 67° East 219 252 16,400 -1,091 Descending Salt Lake Center
Mon 03:54:01 AM 44.5022 -108.8972 67° East 217 250 15,000 -1,350 Descending Salt Lake Center
Mon 03:55:01 AM 44.5233 -108.8211 69° East 214 246 13,700 -1,350 Descending Salt Lake Center
Mon 03:56:01 AM 44.5461 -108.7481 66° East 210 242 12,300 -1,300 Descending Salt Lake Center
Mon 03:57:01 AM 44.5731 -108.6886 58° Northeast 199 229 11,100 -1,488 Descending Salt Lake Center
Mon 03:58:02 AM 44.6208 -108.6961 354° North 182 209 9,300 -1,438 Descending Salt Lake Center
Mon 03:59:02 AM 44.6497 -108.7436 311° West 174 200 8,200 -1,000 Descending Salt Lake Center
Mon 04:00:02 AM 44.6267 -108.8086 244° Southwest 184 212 7,300 -450 Descending Salt Lake Center
Mon 04:01:02 AM 44.6106 -108.8614 247° West 168 193 7,300 -50 Level Salt Lake Center
Mon 04:02:03 AM 44.5900 -108.9056 237° Southwest 150 173 7,200 -446 Descending Salt Lake Center
Mon 04:03:03 AM 44.5631 -108.9483 229° Southwest 144 166 6,400 -800 Descending Salt Lake Center

Login

Don't have an account? Register now (free) for customized features, flight alerts, and more!